createdAt,value
2023-02-22T00:00:01.157Z,4.9
2023-02-22T00:05:53.266Z,4.8
2023-02-22T00:11:45.229Z,4.7
2023-02-22T00:17:38.970Z,4.5
2023-02-22T00:23:30.977Z,4.4
2023-02-22T00:29:22.811Z,4.3
2023-02-22T00:35:01.568Z,4.4
2023-02-22T00:40:38.193Z,4.4
2023-02-22T00:46:30.796Z,4.3
2023-02-22T00:51:53.113Z,4.2
2023-02-22T00:57:45.780Z,4.1
2023-02-22T01:03:39.549Z,4.1
2023-02-22T01:09:17.464Z,3.9
2023-02-22T01:15:11.109Z,3.8
2023-02-22T01:20:49.389Z,3.6
2023-02-22T01:26:42.231Z,3.4
2023-02-22T01:32:19.576Z,3.1
2023-02-22T01:37:56.593Z,2.9
2023-02-22T01:43:35.008Z,2.7
2023-02-22T01:49:27.280Z,2.4
2023-02-22T01:55:19.754Z,2.3
2023-02-22T02:01:11.654Z,2.1
2023-02-22T02:07:04.409Z,2
2023-02-22T02:12:57.383Z,1.9
2023-02-22T02:18:34.380Z,1.8
2023-02-22T02:23:56.349Z,1.7
2023-02-22T02:29:33.367Z,1.6
2023-02-22T02:35:26.984Z,1.4
2023-02-22T02:41:20.232Z,1.3
2023-02-22T02:46:42.211Z,1.1
2023-02-22T02:52:35.835Z,1
2023-02-22T02:58:27.837Z,1
2023-02-22T03:04:04.982Z,0.9
2023-02-22T03:09:58.895Z,0.8
2023-02-22T03:15:51.578Z,0.8
2023-02-22T03:21:43.719Z,0.8
2023-02-22T03:27:36.826Z,0.9
2023-02-22T03:33:13.509Z,1
2023-02-22T03:39:05.499Z,1
2023-02-22T03:44:44.232Z,1
2023-02-22T03:50:21.917Z,1
2023-02-22T03:56:14.564Z,0.9
2023-02-22T04:01:38.368Z,0.9
2023-02-22T04:07:31.573Z,0.9
2023-02-22T04:12:52.496Z,0.8
2023-02-22T04:18:45.577Z,0.6
2023-02-22T04:24:38.180Z,0.6
2023-02-22T04:30:30.000Z,0.4
2023-02-22T04:36:09.469Z,0.3
2023-02-22T04:41:46.672Z,0.2
2023-02-22T04:47:23.882Z,0.1
2023-02-22T04:53:18.779Z,0.1
2023-02-22T04:59:11.640Z,0.1
2023-02-22T05:05:04.083Z,-0.1
2023-02-22T05:10:41.007Z,-0.3
2023-02-22T05:16:03.018Z,-0.4
2023-02-22T05:21:55.661Z,-0.4
2023-02-22T05:27:48.815Z,-0.5
2023-02-22T05:33:42.837Z,-0.6
2023-02-22T05:39:35.695Z,-0.5
2023-02-22T05:45:28.399Z,-0.4
2023-02-22T05:51:06.813Z,-0.1
2023-02-22T05:57:00.117Z,0.3
2023-02-22T06:02:53.457Z,1.8
2023-02-22T06:08:30.202Z,4.4
2023-02-22T06:14:21.815Z,6.4
2023-02-22T06:20:14.678Z,8.9
2023-02-22T06:25:52.232Z,12.3
2023-02-22T06:31:29.464Z,15.9
2023-02-22T06:37:07.122Z,19.6
2023-02-22T06:42:44.733Z,23.2
2023-02-22T06:48:22.251Z,26.9
2023-02-22T06:54:01.282Z,30.4
2023-02-22T06:59:38.890Z,33.8
2023-02-22T07:05:17.623Z,37.2
2023-02-22T07:10:57.733Z,40.4
2023-02-22T07:16:35.011Z,43.4
2023-02-22T07:22:12.808Z,46.4
2023-02-22T07:27:35.764Z,49.1
2023-02-22T07:33:30.940Z,52.7
2023-02-22T07:39:23.934Z,45.4
2023-02-22T07:45:17.053Z,44.4
2023-02-22T07:51:09.745Z,48.3
2023-02-22T07:57:01.816Z,54.6
2023-02-22T08:02:54.193Z,48.1
2023-02-22T08:08:47.061Z,45.7
2023-02-22T08:14:23.780Z,51.3
2023-02-22T08:20:17.781Z,52.5
2023-02-22T08:26:11.082Z,46.4
2023-02-22T08:32:08.504Z,50.8
2023-02-22T08:38:02.906Z,55.1
2023-02-22T08:43:55.399Z,50.6
2023-02-22T08:49:48.425Z,50.8
2023-02-22T08:55:42.569Z,51.8
2023-02-22T09:01:49.018Z,52.4
2023-02-22T09:07:41.625Z,53.3
2023-02-22T09:13:37.710Z,54.2
2023-02-22T09:19:39.177Z,55
2023-02-22T09:25:39.185Z,55.6
2023-02-22T09:31:32.980Z,55.9
2023-02-22T09:37:13.800Z,56.1
2023-02-22T09:43:07.125Z,56.6
2023-02-22T09:49:16.357Z,57
2023-02-22T09:54:54.327Z,56.8
2023-02-22T10:00:31.826Z,56.8
2023-02-22T10:06:25.090Z,57
2023-02-22T10:11:46.599Z,57.3
2023-02-22T10:16:53.501Z,57.9
2023-02-22T10:22:47.153Z,58.9
2023-02-22T10:28:24.533Z,59.5
2023-02-22T10:34:23.616Z,59.8
2023-02-22T10:40:18.878Z,58.9
2023-02-22T10:45:41.458Z,59.4
2023-02-22T10:51:20.678Z,60.3
2023-02-22T10:57:03.194Z,60.9
2023-02-22T11:02:39.626Z,60.8
2023-02-22T11:08:17.831Z,60.5
2023-02-22T11:13:56.367Z,61
2023-02-22T11:19:21.094Z,61.6
2023-02-22T11:25:06.733Z,61.1
2023-02-22T11:30:45.044Z,60.8
2023-02-22T11:36:53.235Z,61.1
2023-02-22T11:42:15.601Z,60.6
2023-02-22T11:48:02.154Z,60.6
2023-02-22T11:53:56.140Z,60.7
2023-02-22T11:59:30.553Z,60
2023-02-22T12:05:33.421Z,59.6
2023-02-22T12:11:31.519Z,59.9
2023-02-22T12:17:25.805Z,59.3
2023-02-22T12:23:28.104Z,58.5
2023-02-22T12:29:20.828Z,57.9
2023-02-22T12:35:14.848Z,57.3
2023-02-22T12:40:48.918Z,55.2
2023-02-22T12:46:42.124Z,56.6
2023-02-22T12:52:46.248Z,61.8
2023-02-22T12:58:23.679Z,56.1
2023-02-22T13:04:08.596Z,53.8
2023-02-22T13:10:07.616Z,56.1
2023-02-22T13:16:00.824Z,57.6
2023-02-22T13:21:39.015Z,59.9
2023-02-22T13:27:16.740Z,53.5
2023-02-22T13:33:26.364Z,51.3
2023-02-22T13:39:04.063Z,51.8
2023-02-22T13:44:56.795Z,52.4
2023-02-22T13:50:53.796Z,52.7
2023-02-22T13:56:48.846Z,52.6
2023-02-22T14:02:44.719Z,51.9
2023-02-22T14:08:40.150Z,50.6
2023-02-22T14:14:19.437Z,48.9
2023-02-22T14:20:20.489Z,47.6
2023-02-22T14:26:23.669Z,45.9
2023-02-22T14:32:31.402Z,44.1
2023-02-22T14:38:41.978Z,42.1
2023-02-22T14:44:37.686Z,40.2
2023-02-22T14:50:33.809Z,38.4
2023-02-22T14:56:40.731Z,36.5
2023-02-22T15:02:32.511Z,34.8
2023-02-22T15:08:37.916Z,33.1
2023-02-22T15:14:43.258Z,31.3
2023-02-22T15:20:37.750Z,29.5
2023-02-22T15:26:33.153Z,27.9
2023-02-22T15:32:23.357Z,26.5
2023-02-22T15:38:38.159Z,25
2023-02-22T15:44:41.173Z,23.6
2023-02-22T15:50:34.372Z,22.3
2023-02-22T15:56:37.350Z,21.1
2023-02-22T16:02:17.001Z,20
2023-02-22T16:08:19.705Z,18.9
2023-02-22T16:14:26.563Z,17.9
2023-02-22T16:20:38.546Z,16.9
2023-02-22T16:26:44.940Z,16.1
2023-02-22T16:32:33.830Z,15.4
2023-02-22T16:38:14.333Z,14.8
2023-02-22T16:43:52.974Z,14.3
2023-02-22T16:49:31.176Z,13.8
2023-02-22T16:55:24.453Z,13.4
2023-02-22T17:01:01.704Z,12.9
2023-02-22T17:06:55.779Z,12.5
2023-02-22T17:12:32.557Z,12.1
2023-02-22T17:18:42.093Z,11.8
2023-02-22T17:24:04.003Z,11.5
2023-02-22T17:29:57.637Z,11.2
2023-02-22T17:35:36.672Z,10.9
2023-02-22T17:41:30.799Z,10.6
2023-02-22T17:47:23.454Z,10.3
2023-02-22T17:53:56.868Z,10.1
2023-02-22T17:59:18.647Z,9.9
2023-02-22T18:05:11.850Z,9.7
2023-02-22T18:10:34.490Z,9.4
2023-02-22T18:16:12.199Z,9.2
2023-02-22T18:21:50.336Z,8.9
2023-02-22T18:27:56.347Z,8.6
2023-02-22T18:33:49.970Z,8.4
2023-02-22T18:39:43.519Z,8.1
2023-02-22T18:45:37.207Z,7.9
2023-02-22T18:51:31.778Z,7.8
2023-02-22T18:57:28.813Z,7.6
2023-02-22T19:03:23.285Z,7.6
2023-02-22T19:09:17.527Z,7.5
2023-02-22T19:15:10.988Z,7.4
2023-02-22T19:21:11.264Z,7.3
2023-02-22T19:27:04.799Z,7.1
2023-02-22T19:32:58.940Z,7.1
2023-02-22T19:38:53.905Z,7.1
2023-02-22T19:44:51.822Z,7
2023-02-22T19:50:45.878Z,6.9
2023-02-22T19:56:39.878Z,6.8
2023-02-22T20:02:33.209Z,6.6
2023-02-22T20:08:28.056Z,6.4
2023-02-22T20:14:20.651Z,6.3
2023-02-22T20:19:58.618Z,6.1
2023-02-22T20:25:52.465Z,5.9
2023-02-22T20:31:34.438Z,5.8
2023-02-22T20:37:29.496Z,5.7
2023-02-22T20:43:07.153Z,5.6
2023-02-22T20:48:44.027Z,5.6
2023-02-22T20:54:37.936Z,5.4
2023-02-22T21:00:33.954Z,5.3
2023-02-22T21:06:29.274Z,5.2
2023-02-22T21:12:22.700Z,5.1
2023-02-22T21:18:19.171Z,5
2023-02-22T21:24:12.369Z,4.9
2023-02-22T21:30:04.658Z,4.9
2023-02-22T21:35:59.101Z,4.7
2023-02-22T21:41:52.684Z,4.6
2023-02-22T21:47:45.680Z,4.5
2023-02-22T21:53:38.842Z,4.4
2023-02-22T21:59:31.777Z,4.3
2023-02-22T22:05:25.050Z,4.1
2023-02-22T22:11:19.012Z,3.9
2023-02-22T22:17:17.158Z,3.8
2023-02-22T22:23:09.882Z,3.6
2023-02-22T22:29:03.841Z,3.4
2023-02-22T22:34:55.947Z,3.2
2023-02-22T22:40:33.381Z,3.1
2023-02-22T22:46:11.614Z,2.9
2023-02-22T22:51:51.192Z,2.8
2023-02-22T22:57:43.494Z,2.6
2023-02-22T23:03:37.670Z,2.4
2023-02-22T23:09:31.340Z,2.4
2023-02-22T23:15:24.264Z,2.3
2023-02-22T23:21:17.815Z,2.2
2023-02-22T23:27:10.195Z,2.1
2023-02-22T23:32:48.869Z,2.1
2023-02-22T23:38:44.378Z,2.1
2023-02-22T23:44:37.320Z,2.1
2023-02-22T23:50:15.442Z,2
2023-02-22T23:55:53.675Z,2
